sensor_id;sensor_type;location;lat;lon;timestamp;temperature;humidity
76168;DHT22;64927;48.214;16.378;2023-08-21T00:01:55;26.40;58.30
76168;DHT22;64927;48.214;16.378;2023-08-21T00:04:21;26.40;58.50
76168;DHT22;64927;48.214;16.378;2023-08-21T00:06:46;26.30;58.80
76168;DHT22;64927;48.214;16.378;2023-08-21T00:09:12;26.30;59.00
76168;DHT22;64927;48.214;16.378;2023-08-21T00:11:37;26.30;58.80
76168;DHT22;64927;48.214;16.378;2023-08-21T00:14:05;26.30;59.00
76168;DHT22;64927;48.214;16.378;2023-08-21T00:16:32;26.30;58.90
76168;DHT22;64927;48.214;16.378;2023-08-21T00:18:57;26.20;59.00
76168;DHT22;64927;48.214;16.378;2023-08-21T00:21:23;26.20;59.30
76168;DHT22;64927;48.214;16.378;2023-08-21T00:23:49;26.20;59.50
76168;DHT22;64927;48.214;16.378;2023-08-21T00:26:14;26.20;59.30
76168;DHT22;64927;48.214;16.378;2023-08-21T00:28:40;26.10;59.50
76168;DHT22;64927;48.214;16.378;2023-08-21T00:31:06;26.10;59.20
76168;DHT22;64927;48.214;16.378;2023-08-21T00:33:32;26.10;59.70
76168;DHT22;64927;48.214;16.378;2023-08-21T00:35:58;26.10;59.70
76168;DHT22;64927;48.214;16.378;2023-08-21T00:38:24;26.00;59.60
76168;DHT22;64927;48.214;16.378;2023-08-21T00:40:50;26.00;60.00
76168;DHT22;64927;48.214;16.378;2023-08-21T00:43:16;26.00;60.00
76168;DHT22;64927;48.214;16.378;2023-08-21T00:45:44;26.00;59.80
76168;DHT22;64927;48.214;16.378;2023-08-21T00:48:10;26.00;59.70
76168;DHT22;64927;48.214;16.378;2023-08-21T00:50:37;25.90;60.00
76168;DHT22;64927;48.214;16.378;2023-08-21T00:53:03;25.90;60.00
76168;DHT22;64927;48.214;16.378;2023-08-21T00:55:30;25.90;60.20
76168;DHT22;64927;48.214;16.378;2023-08-21T00:57:58;25.90;59.90
76168;DHT22;64927;48.214;16.378;2023-08-21T01:00:26;25.90;60.00
76168;DHT22;64927;48.214;16.378;2023-08-21T01:02:52;25.90;60.30
76168;DHT22;64927;48.214;16.378;2023-08-21T01:05:18;25.90;60.20
76168;DHT22;64927;48.214;16.378;2023-08-21T01:10:53;25.80;60.70
76168;DHT22;64927;48.214;16.378;2023-08-21T01:16:07;25.70;61.20
76168;DHT22;64927;48.214;16.378;2023-08-21T01:18:34;25.70;61.30
76168;DHT22;64927;48.214;16.378;2023-08-21T01:21:02;25.70;61.50
76168;DHT22;64927;48.214;16.378;2023-08-21T01:23:33;25.80;61.10
76168;DHT22;64927;48.214;16.378;2023-08-21T01:26:01;25.80;61.50
76168;DHT22;64927;48.214;16.378;2023-08-21T01:28:28;25.80;61.10
76168;DHT22;64927;48.214;16.378;2023-08-21T01:31:19;25.70;61.60
76168;DHT22;64927;48.214;16.378;2023-08-21T01:33:50;25.70;61.40
76168;DHT22;64927;48.214;16.378;2023-08-21T01:36:17;25.70;61.50
76168;DHT22;64927;48.214;16.378;2023-08-21T01:38:43;25.70;61.30
76168;DHT22;64927;48.214;16.378;2023-08-21T01:41:09;25.60;61.30
76168;DHT22;64927;48.214;16.378;2023-08-21T01:43:37;25.70;61.00
76168;DHT22;64927;48.214;16.378;2023-08-21T01:46:03;25.70;61.10
76168;DHT22;64927;48.214;16.378;2023-08-21T01:48:28;25.60;60.90
76168;DHT22;64927;48.214;16.378;2023-08-21T01:50:56;25.60;60.90
76168;DHT22;64927;48.214;16.378;2023-08-21T01:53:22;25.60;60.70
76168;DHT22;64927;48.214;16.378;2023-08-21T01:55:50;25.50;60.80
76168;DHT22;64927;48.214;16.378;2023-08-21T01:58:15;25.40;60.90
76168;DHT22;64927;48.214;16.378;2023-08-21T02:00:41;25.40;61.20
76168;DHT22;64927;48.214;16.378;2023-08-21T02:03:11;25.40;61.30
76168;DHT22;64927;48.214;16.378;2023-08-21T02:05:38;25.30;61.40
76168;DHT22;64927;48.214;16.378;2023-08-21T02:08:05;25.30;61.50
76168;DHT22;64927;48.214;16.378;2023-08-21T02:10:31;25.30;61.70
76168;DHT22;64927;48.214;16.378;2023-08-21T02:12:59;25.30;61.50
76168;DHT22;64927;48.214;16.378;2023-08-21T02:15:27;25.30;61.70
76168;DHT22;64927;48.214;16.378;2023-08-21T02:17:53;25.20;62.00
76168;DHT22;64927;48.214;16.378;2023-08-21T02:20:19;25.20;62.10
76168;DHT22;64927;48.214;16.378;2023-08-21T02:22:45;25.10;62.10
76168;DHT22;64927;48.214;16.378;2023-08-21T02:25:11;25.10;62.30
76168;DHT22;64927;48.214;16.378;2023-08-21T02:27:41;25.10;62.20
76168;DHT22;64927;48.214;16.378;2023-08-21T02:30:07;25.10;62.50
76168;DHT22;64927;48.214;16.378;2023-08-21T02:32:32;25.10;62.80
76168;DHT22;64927;48.214;16.378;2023-08-21T02:34:58;25.10;63.00
76168;DHT22;64927;48.214;16.378;2023-08-21T02:37:23;25.10;62.80
76168;DHT22;64927;48.214;16.378;2023-08-21T02:39:49;25.10;62.70
76168;DHT22;64927;48.214;16.378;2023-08-21T02:42:17;25.00;62.80
76168;DHT22;64927;48.214;16.378;2023-08-21T02:44:42;25.10;62.70
76168;DHT22;64927;48.214;16.378;2023-08-21T02:47:10;25.00;62.70
76168;DHT22;64927;48.214;16.378;2023-08-21T02:49:36;25.10;62.70
76168;DHT22;64927;48.214;16.378;2023-08-21T02:52:02;25.00;62.80
76168;DHT22;64927;48.214;16.378;2023-08-21T02:54:29;25.00;62.60
76168;DHT22;64927;48.214;16.378;2023-08-21T02:56:55;25.00;62.70
76168;DHT22;64927;48.214;16.378;2023-08-21T02:59:21;25.00;62.70
76168;DHT22;64927;48.214;16.378;2023-08-21T03:01:46;25.00;62.90
76168;DHT22;64927;48.214;16.378;2023-08-21T03:04:14;25.00;63.00
76168;DHT22;64927;48.214;16.378;2023-08-21T03:06:40;24.90;62.90
76168;DHT22;64927;48.214;16.378;2023-08-21T03:09:06;25.00;62.90
76168;DHT22;64927;48.214;16.378;2023-08-21T03:11:34;25.00;62.90
76168;DHT22;64927;48.214;16.378;2023-08-21T03:14:00;24.90;63.60
76168;DHT22;64927;48.214;16.378;2023-08-21T03:16:25;24.90;63.90
76168;DHT22;64927;48.214;16.378;2023-08-21T03:18:58;25.00;63.40
76168;DHT22;64927;48.214;16.378;2023-08-21T03:21:27;25.00;63.30
76168;DHT22;64927;48.214;16.378;2023-08-21T03:23:57;25.00;63.30
76168;DHT22;64927;48.214;16.378;2023-08-21T03:26:25;24.90;63.60
76168;DHT22;64927;48.214;16.378;2023-08-21T03:28:50;24.70;64.50
76168;DHT22;64927;48.214;16.378;2023-08-21T03:31:16;24.70;63.70
76168;DHT22;64927;48.214;16.378;2023-08-21T03:33:42;24.70;63.80
76168;DHT22;64927;48.214;16.378;2023-08-21T03:36:12;24.60;63.80
76168;DHT22;64927;48.214;16.378;2023-08-21T03:38:38;24.60;63.60
76168;DHT22;64927;48.214;16.378;2023-08-21T03:41:03;24.50;63.20
76168;DHT22;64927;48.214;16.378;2023-08-21T03:43:31;24.70;62.90
76168;DHT22;64927;48.214;16.378;2023-08-21T03:45:56;24.80;63.30
76168;DHT22;64927;48.214;16.378;2023-08-21T03:48:22;24.70;62.30
76168;DHT22;64927;48.214;16.378;2023-08-21T03:50:49;24.70;62.40
76168;DHT22;64927;48.214;16.378;2023-08-21T03:53:15;24.70;62.40
76168;DHT22;64927;48.214;16.378;2023-08-21T03:55:43;24.60;62.60
76168;DHT22;64927;48.214;16.378;2023-08-21T03:58:08;24.60;62.70
76168;DHT22;64927;48.214;16.378;2023-08-21T04:00:34;24.50;62.60
76168;DHT22;64927;48.214;16.378;2023-08-21T04:03:02;24.50;62.80
76168;DHT22;64927;48.214;16.378;2023-08-21T04:05:27;24.50;62.80
76168;DHT22;64927;48.214;16.378;2023-08-21T04:07:53;24.50;62.80
76168;DHT22;64927;48.214;16.378;2023-08-21T04:10:21;24.60;63.30
76168;DHT22;64927;48.214;16.378;2023-08-21T04:12:47;24.60;62.60
76168;DHT22;64927;48.214;16.378;2023-08-21T04:15:12;24.60;62.50
76168;DHT22;64927;48.214;16.378;2023-08-21T04:17:38;24.70;63.50
76168;DHT22;64927;48.214;16.378;2023-08-21T04:20:07;24.70;62.50
76168;DHT22;64927;48.214;16.378;2023-08-21T04:22:35;24.80;62.50
76168;DHT22;64927;48.214;16.378;2023-08-21T04:25:00;24.80;62.40
76168;DHT22;64927;48.214;16.378;2023-08-21T04:27:26;24.80;62.30
76168;DHT22;64927;48.214;16.378;2023-08-21T04:29:53;24.90;62.10
76168;DHT22;64927;48.214;16.378;2023-08-21T04:32:19;25.10;62.10
76168;DHT22;64927;48.214;16.378;2023-08-21T04:34:50;25.10;61.70
76168;DHT22;64927;48.214;16.378;2023-08-21T04:37:17;25.20;61.70
76168;DHT22;64927;48.214;16.378;2023-08-21T04:39:43;25.20;61.70
76168;DHT22;64927;48.214;16.378;2023-08-21T04:42:09;25.30;61.60
76168;DHT22;64927;48.214;16.378;2023-08-21T04:44:35;25.30;61.60
76168;DHT22;64927;48.214;16.378;2023-08-21T04:47:19;25.40;61.70
76168;DHT22;64927;48.214;16.378;2023-08-21T04:49:48;25.50;61.40
76168;DHT22;64927;48.214;16.378;2023-08-21T04:52:14;25.60;61.20
76168;DHT22;64927;48.214;16.378;2023-08-21T04:54:39;25.60;61.10
76168;DHT22;64927;48.214;16.378;2023-08-21T04:57:05;25.60;61.10
76168;DHT22;64927;48.214;16.378;2023-08-21T04:59:31;25.70;61.00
76168;DHT22;64927;48.214;16.378;2023-08-21T05:01:56;25.70;61.00
76168;DHT22;64927;48.214;16.378;2023-08-21T05:04:25;25.70;61.00
76168;DHT22;64927;48.214;16.378;2023-08-21T05:06:50;25.80;61.00
76168;DHT22;64927;48.214;16.378;2023-08-21T05:09:21;25.80;60.70
76168;DHT22;64927;48.214;16.378;2023-08-21T05:11:49;25.90;60.80
76168;DHT22;64927;48.214;16.378;2023-08-21T05:14:14;25.90;60.60
76168;DHT22;64927;48.214;16.378;2023-08-21T05:16:40;26.00;60.70
76168;DHT22;64927;48.214;16.378;2023-08-21T05:19:05;26.00;60.40
76168;DHT22;64927;48.214;16.378;2023-08-21T05:21:31;26.00;60.20
76168;DHT22;64927;48.214;16.378;2023-08-21T05:23:57;26.10;60.00
76168;DHT22;64927;48.214;16.378;2023-08-21T05:26:22;26.30;59.60
76168;DHT22;64927;48.214;16.378;2023-08-21T05:28:48;26.30;59.70
76168;DHT22;64927;48.214;16.378;2023-08-21T05:31:13;26.40;58.80
76168;DHT22;64927;48.214;16.378;2023-08-21T05:33:39;26.30;58.90
76168;DHT22;64927;48.214;16.378;2023-08-21T05:36:07;26.30;59.00
76168;DHT22;64927;48.214;16.378;2023-08-21T05:38:32;26.30;59.30
76168;DHT22;64927;48.214;16.378;2023-08-21T05:40:58;26.40;58.80
76168;DHT22;64927;48.214;16.378;2023-08-21T05:43:24;26.40;58.50
76168;DHT22;64927;48.214;16.378;2023-08-21T05:45:50;26.40;58.70
76168;DHT22;64927;48.214;16.378;2023-08-21T05:48:15;26.50;58.50
76168;DHT22;64927;48.214;16.378;2023-08-21T05:50:43;26.60;58.70
76168;DHT22;64927;48.214;16.378;2023-08-21T05:53:08;26.80;58.20
76168;DHT22;64927;48.214;16.378;2023-08-21T05:55:36;26.70;57.90
76168;DHT22;64927;48.214;16.378;2023-08-21T05:58:04;26.80;57.80
76168;DHT22;64927;48.214;16.378;2023-08-21T06:00:35;27.00;57.30
76168;DHT22;64927;48.214;16.378;2023-08-21T06:03:01;27.10;57.50
76168;DHT22;64927;48.214;16.378;2023-08-21T06:05:27;27.10;57.60
76168;DHT22;64927;48.214;16.378;2023-08-21T06:07:55;27.10;57.90
76168;DHT22;64927;48.214;16.378;2023-08-21T06:10:20;27.00;57.80
76168;DHT22;64927;48.214;16.378;2023-08-21T06:12:46;27.10;58.00
76168;DHT22;64927;48.214;16.378;2023-08-21T06:15:13;27.30;57.40
76168;DHT22;64927;48.214;16.378;2023-08-21T06:17:39;27.50;56.90
76168;DHT22;64927;48.214;16.378;2023-08-21T06:20:06;27.50;56.70
76168;DHT22;64927;48.214;16.378;2023-08-21T06:22:34;27.60;56.90
76168;DHT22;64927;48.214;16.378;2023-08-21T06:25:00;27.70;56.50
76168;DHT22;64927;48.214;16.378;2023-08-21T06:27:25;27.80;55.30
76168;DHT22;64927;48.214;16.378;2023-08-21T06:29:51;27.70;54.70
76168;DHT22;64927;48.214;16.378;2023-08-21T06:32:17;27.80;54.90
76168;DHT22;64927;48.214;16.378;2023-08-21T06:34:42;27.90;55.40
76168;DHT22;64927;48.214;16.378;2023-08-21T06:37:08;28.00;56.40
76168;DHT22;64927;48.214;16.378;2023-08-21T06:39:36;28.00;54.40
76168;DHT22;64927;48.214;16.378;2023-08-21T06:42:02;28.00;55.50
76168;DHT22;64927;48.214;16.378;2023-08-21T06:44:28;27.90;56.00
76168;DHT22;64927;48.214;16.378;2023-08-21T06:46:53;28.00;56.20
76168;DHT22;64927;48.214;16.378;2023-08-21T06:49:19;28.10;55.50
76168;DHT22;64927;48.214;16.378;2023-08-21T06:51:45;28.00;54.60
76168;DHT22;64927;48.214;16.378;2023-08-21T06:54:10;27.90;55.30
76168;DHT22;64927;48.214;16.378;2023-08-21T06:56:38;28.10;55.30
76168;DHT22;64927;48.214;16.378;2023-08-21T06:59:04;28.30;54.90
76168;DHT22;64927;48.214;16.378;2023-08-21T07:01:32;28.50;55.10
76168;DHT22;64927;48.214;16.378;2023-08-21T07:03:57;28.70;54.70
76168;DHT22;64927;48.214;16.378;2023-08-21T07:06:23;28.90;53.50
76168;DHT22;64927;48.214;16.378;2023-08-21T07:08:51;29.20;52.80
76168;DHT22;64927;48.214;16.378;2023-08-21T07:11:16;29.40;52.10
76168;DHT22;64927;48.214;16.378;2023-08-21T07:13:42;29.60;51.50
76168;DHT22;64927;48.214;16.378;2023-08-21T07:16:08;30.00;51.70
76168;DHT22;64927;48.214;16.378;2023-08-21T07:18:37;30.60;51.80
76168;DHT22;64927;48.214;16.378;2023-08-21T07:21:03;31.20;49.40
76168;DHT22;64927;48.214;16.378;2023-08-21T07:23:31;31.50;46.80
76168;DHT22;64927;48.214;16.378;2023-08-21T07:25:58;31.60;47.10
76168;DHT22;64927;48.214;16.378;2023-08-21T07:28:24;31.90;45.90
76168;DHT22;64927;48.214;16.378;2023-08-21T07:30:57;32.20;44.70
76168;DHT22;64927;48.214;16.378;2023-08-21T07:33:23;32.30;44.00
76168;DHT22;64927;48.214;16.378;2023-08-21T07:36:03;32.50;43.90
76168;DHT22;64927;48.214;16.378;2023-08-21T07:38:32;32.70;43.80
76168;DHT22;64927;48.214;16.378;2023-08-21T07:41:07;33.00;43.20
76168;DHT22;64927;48.214;16.378;2023-08-21T07:43:35;33.00;43.30
76168;DHT22;64927;48.214;16.378;2023-08-21T07:46:05;33.30;41.90
76168;DHT22;64927;48.214;16.378;2023-08-21T07:48:31;33.20;42.30
76168;DHT22;64927;48.214;16.378;2023-08-21T07:50:57;33.60;41.60
76168;DHT22;64927;48.214;16.378;2023-08-21T07:53:24;33.80;41.60
76168;DHT22;64927;48.214;16.378;2023-08-21T07:55:49;34.30;41.20
76168;DHT22;64927;48.214;16.378;2023-08-21T07:58:15;34.60;39.20
76168;DHT22;64927;48.214;16.378;2023-08-21T08:00:41;34.00;38.80
76168;DHT22;64927;48.214;16.378;2023-08-21T08:03:08;34.00;39.50
76168;DHT22;64927;48.214;16.378;2023-08-21T08:05:34;33.70;38.60
76168;DHT22;64927;48.214;16.378;2023-08-21T08:08:00;33.40;39.70
76168;DHT22;64927;48.214;16.378;2023-08-21T08:10:28;33.80;40.90
76168;DHT22;64927;48.214;16.378;2023-08-21T08:12:56;34.40;39.10
76168;DHT22;64927;48.214;16.378;2023-08-21T08:15:24;34.90;37.80
76168;DHT22;64927;48.214;16.378;2023-08-21T08:17:49;34.80;38.20
76168;DHT22;64927;48.214;16.378;2023-08-21T08:20:19;34.50;37.70
76168;DHT22;64927;48.214;16.378;2023-08-21T08:22:44;33.80;39.10
76168;DHT22;64927;48.214;16.378;2023-08-21T08:25:10;33.70;39.10
76168;DHT22;64927;48.214;16.378;2023-08-21T08:27:39;33.70;40.30
76168;DHT22;64927;48.214;16.378;2023-08-21T08:30:05;34.50;40.50
76168;DHT22;64927;48.214;16.378;2023-08-21T08:32:33;34.60;37.50
76168;DHT22;64927;48.214;16.378;2023-08-21T08:34:59;34.60;37.80
76168;DHT22;64927;48.214;16.378;2023-08-21T08:37:24;34.80;37.80
76168;DHT22;64927;48.214;16.378;2023-08-21T08:39:50;35.20;36.60
76168;DHT22;64927;48.214;16.378;2023-08-21T08:42:16;35.10;35.90
76168;DHT22;64927;48.214;16.378;2023-08-21T08:44:43;34.50;37.40
76168;DHT22;64927;48.214;16.378;2023-08-21T08:47:13;34.70;37.80
76168;DHT22;64927;48.214;16.378;2023-08-21T08:49:40;35.10;36.80
76168;DHT22;64927;48.214;16.378;2023-08-21T08:52:05;34.80;37.20
76168;DHT22;64927;48.214;16.378;2023-08-21T08:54:32;34.50;37.60
76168;DHT22;64927;48.214;16.378;2023-08-21T08:57:01;34.60;36.90
76168;DHT22;64927;48.214;16.378;2023-08-21T08:59:30;34.60;36.80
76168;DHT22;64927;48.214;16.378;2023-08-21T09:01:56;34.40;37.40
76168;DHT22;64927;48.214;16.378;2023-08-21T09:04:22;34.40;37.70
76168;DHT22;64927;48.214;16.378;2023-08-21T09:06:48;34.40;36.80
76168;DHT22;64927;48.214;16.378;2023-08-21T09:09:13;34.20;36.80
76168;DHT22;64927;48.214;16.378;2023-08-21T09:11:43;33.70;37.00
76168;DHT22;64927;48.214;16.378;2023-08-21T09:14:10;33.30;37.90
76168;DHT22;64927;48.214;16.378;2023-08-21T09:16:56;33.50;38.10
76168;DHT22;64927;48.214;16.378;2023-08-21T09:19:23;33.60;37.20
76168;DHT22;64927;48.214;16.378;2023-08-21T09:21:50;33.60;37.40
76168;DHT22;64927;48.214;16.378;2023-08-21T09:24:15;33.80;37.20
76168;DHT22;64927;48.214;16.378;2023-08-21T09:26:43;33.90;37.60
76168;DHT22;64927;48.214;16.378;2023-08-21T09:29:09;33.80;36.30
76168;DHT22;64927;48.214;16.378;2023-08-21T09:31:36;33.60;36.60
76168;DHT22;64927;48.214;16.378;2023-08-21T09:34:03;33.50;36.30
76168;DHT22;64927;48.214;16.378;2023-08-21T09:36:33;33.50;37.70
76168;DHT22;64927;48.214;16.378;2023-08-21T09:38:59;33.80;37.50
76168;DHT22;64927;48.214;16.378;2023-08-21T09:41:26;34.00;36.00
76168;DHT22;64927;48.214;16.378;2023-08-21T09:43:51;34.00;35.80
76168;DHT22;64927;48.214;16.378;2023-08-21T09:46:23;33.80;36.00
76168;DHT22;64927;48.214;16.378;2023-08-21T09:48:52;33.80;36.30
76168;DHT22;64927;48.214;16.378;2023-08-21T09:51:18;33.70;35.70
76168;DHT22;64927;48.214;16.378;2023-08-21T09:53:49;33.70;35.80
76168;DHT22;64927;48.214;16.378;2023-08-21T09:56:18;33.80;35.30
76168;DHT22;64927;48.214;16.378;2023-08-21T09:58:43;33.70;34.90
76168;DHT22;64927;48.214;16.378;2023-08-21T10:01:09;33.80;35.90
76168;DHT22;64927;48.214;16.378;2023-08-21T10:03:40;34.00;34.50
76168;DHT22;64927;48.214;16.378;2023-08-21T10:06:11;34.10;34.70
76168;DHT22;64927;48.214;16.378;2023-08-21T10:08:38;34.30;34.60
76168;DHT22;64927;48.214;16.378;2023-08-21T10:11:08;34.20;34.60
76168;DHT22;64927;48.214;16.378;2023-08-21T10:13:37;34.10;34.00
76168;DHT22;64927;48.214;16.378;2023-08-21T10:16:03;34.30;35.00
76168;DHT22;64927;48.214;16.378;2023-08-21T10:18:34;34.40;34.50
76168;DHT22;64927;48.214;16.378;2023-08-21T10:21:13;34.30;34.30
76168;DHT22;64927;48.214;16.378;2023-08-21T10:23:41;34.20;34.60
76168;DHT22;64927;48.214;16.378;2023-08-21T10:26:10;34.30;33.60
76168;DHT22;64927;48.214;16.378;2023-08-21T10:28:51;34.00;33.90
76168;DHT22;64927;48.214;16.378;2023-08-21T10:31:33;34.00;33.90
76168;DHT22;64927;48.214;16.378;2023-08-21T10:34:08;33.80;33.70
76168;DHT22;64927;48.214;16.378;2023-08-21T10:39:18;34.20;34.20
76168;DHT22;64927;48.214;16.378;2023-08-21T10:47:30;34.30;33.50
76168;DHT22;64927;48.214;16.378;2023-08-21T10:49:58;34.30;33.30
76168;DHT22;64927;48.214;16.378;2023-08-21T10:52:29;34.30;33.40
76168;DHT22;64927;48.214;16.378;2023-08-21T10:54:59;34.30;34.60
76168;DHT22;64927;48.214;16.378;2023-08-21T10:57:27;34.40;33.90
76168;DHT22;64927;48.214;16.378;2023-08-21T11:02:30;34.40;35.20
76168;DHT22;64927;48.214;16.378;2023-08-21T11:04:57;34.60;34.10
76168;DHT22;64927;48.214;16.378;2023-08-21T11:07:24;34.60;34.50
76168;DHT22;64927;48.214;16.378;2023-08-21T11:09:50;34.60;32.90
76168;DHT22;64927;48.214;16.378;2023-08-21T11:12:20;34.60;32.20
76168;DHT22;64927;48.214;16.378;2023-08-21T11:14:46;34.40;33.30
76168;DHT22;64927;48.214;16.378;2023-08-21T11:17:12;34.40;32.90
76168;DHT22;64927;48.214;16.378;2023-08-21T11:19:39;34.40;32.20
76168;DHT22;64927;48.214;16.378;2023-08-21T11:22:06;34.50;33.40
76168;DHT22;64927;48.214;16.378;2023-08-21T11:27:13;34.60;34.00
76168;DHT22;64927;48.214;16.378;2023-08-21T11:29:50;34.80;34.30
76168;DHT22;64927;48.214;16.378;2023-08-21T11:32:23;34.60;34.00
76168;DHT22;64927;48.214;16.378;2023-08-21T11:34:56;34.60;33.70
76168;DHT22;64927;48.214;16.378;2023-08-21T11:37:25;34.60;34.30
76168;DHT22;64927;48.214;16.378;2023-08-21T11:39:52;34.60;33.20
76168;DHT22;64927;48.214;16.378;2023-08-21T11:42:22;34.70;33.10
76168;DHT22;64927;48.214;16.378;2023-08-21T11:44:54;34.70;33.10
76168;DHT22;64927;48.214;16.378;2023-08-21T11:47:21;34.60;32.40
76168;DHT22;64927;48.214;16.378;2023-08-21T11:49:48;34.60;32.50
76168;DHT22;64927;48.214;16.378;2023-08-21T11:52:21;34.50;31.60
76168;DHT22;64927;48.214;16.378;2023-08-21T11:54:51;34.50;31.40
76168;DHT22;64927;48.214;16.378;2023-08-21T11:57:20;34.50;30.20
76168;DHT22;64927;48.214;16.378;2023-08-21T11:59:53;34.60;30.40
76168;DHT22;64927;48.214;16.378;2023-08-21T12:02:23;34.60;31.10
76168;DHT22;64927;48.214;16.378;2023-08-21T12:05:14;34.80;30.00
76168;DHT22;64927;48.214;16.378;2023-08-21T12:07:42;34.80;30.40
76168;DHT22;64927;48.214;16.378;2023-08-21T12:10:08;34.80;30.30
76168;DHT22;64927;48.214;16.378;2023-08-21T12:12:34;34.90;29.50
76168;DHT22;64927;48.214;16.378;2023-08-21T12:14:59;34.90;29.50
76168;DHT22;64927;48.214;16.378;2023-08-21T12:17:27;34.90;29.10
76168;DHT22;64927;48.214;16.378;2023-08-21T12:19:55;34.80;29.00
76168;DHT22;64927;48.214;16.378;2023-08-21T12:22:21;34.60;28.40
76168;DHT22;64927;48.214;16.378;2023-08-21T12:24:47;34.50;29.10
76168;DHT22;64927;48.214;16.378;2023-08-21T12:27:12;34.60;28.30
76168;DHT22;64927;48.214;16.378;2023-08-21T12:29:38;34.80;27.70
76168;DHT22;64927;48.214;16.378;2023-08-21T12:32:04;34.70;28.20
76168;DHT22;64927;48.214;16.378;2023-08-21T12:34:29;34.80;28.10
76168;DHT22;64927;48.214;16.378;2023-08-21T12:36:55;34.80;28.60
76168;DHT22;64927;48.214;16.378;2023-08-21T12:39:21;34.80;29.10
76168;DHT22;64927;48.214;16.378;2023-08-21T12:41:47;34.90;28.70
76168;DHT22;64927;48.214;16.378;2023-08-21T12:44:16;34.90;28.80
76168;DHT22;64927;48.214;16.378;2023-08-21T12:46:41;35.10;29.40
76168;DHT22;64927;48.214;16.378;2023-08-21T12:49:07;34.90;29.60
76168;DHT22;64927;48.214;16.378;2023-08-21T12:51:37;34.80;29.50
76168;DHT22;64927;48.214;16.378;2023-08-21T12:54:04;34.80;29.70
76168;DHT22;64927;48.214;16.378;2023-08-21T12:56:29;34.80;29.60
76168;DHT22;64927;48.214;16.378;2023-08-21T12:58:55;34.80;29.70
76168;DHT22;64927;48.214;16.378;2023-08-21T13:01:23;35.00;29.80
76168;DHT22;64927;48.214;16.378;2023-08-21T13:03:49;35.10;30.00
76168;DHT22;64927;48.214;16.378;2023-08-21T13:06:15;35.20;29.80
76168;DHT22;64927;48.214;16.378;2023-08-21T13:08:41;35.20;29.90
76168;DHT22;64927;48.214;16.378;2023-08-21T13:11:06;35.10;29.90
76168;DHT22;64927;48.214;16.378;2023-08-21T13:13:35;35.20;30.00
76168;DHT22;64927;48.214;16.378;2023-08-21T13:16:01;35.30;30.10
76168;DHT22;64927;48.214;16.378;2023-08-21T13:18:27;35.30;29.50
76168;DHT22;64927;48.214;16.378;2023-08-21T13:20:55;35.40;29.70
76168;DHT22;64927;48.214;16.378;2023-08-21T13:23:20;35.40;29.80
76168;DHT22;64927;48.214;16.378;2023-08-21T13:25:46;35.30;29.40
76168;DHT22;64927;48.214;16.378;2023-08-21T13:28:14;35.00;29.40
76168;DHT22;64927;48.214;16.378;2023-08-21T13:30:39;34.90;30.00
76168;DHT22;64927;48.214;16.378;2023-08-21T13:33:05;34.90;29.90
76168;DHT22;64927;48.214;16.378;2023-08-21T13:35:32;34.90;29.60
76168;DHT22;64927;48.214;16.378;2023-08-21T13:37:58;34.80;29.70
76168;DHT22;64927;48.214;16.378;2023-08-21T13:40:24;34.90;30.00
76168;DHT22;64927;48.214;16.378;2023-08-21T13:42:50;35.00;29.50
76168;DHT22;64927;48.214;16.378;2023-08-21T13:45:19;34.90;29.10
76168;DHT22;64927;48.214;16.378;2023-08-21T13:47:48;35.00;29.20
76168;DHT22;64927;48.214;16.378;2023-08-21T13:50:15;35.00;29.00
76168;DHT22;64927;48.214;16.378;2023-08-21T13:52:45;35.10;28.80
76168;DHT22;64927;48.214;16.378;2023-08-21T13:55:14;35.10;28.70
76168;DHT22;64927;48.214;16.378;2023-08-21T13:57:40;35.00;28.80
76168;DHT22;64927;48.214;16.378;2023-08-21T14:00:07;34.90;28.90
76168;DHT22;64927;48.214;16.378;2023-08-21T14:02:40;34.90;29.10
76168;DHT22;64927;48.214;16.378;2023-08-21T14:05:07;35.00;29.40
76168;DHT22;64927;48.214;16.378;2023-08-21T14:07:33;35.10;28.80
76168;DHT22;64927;48.214;16.378;2023-08-21T14:10:02;35.10;28.80
76168;DHT22;64927;48.214;16.378;2023-08-21T14:12:29;35.00;28.80
76168;DHT22;64927;48.214;16.378;2023-08-21T14:14:55;35.20;29.30
76168;DHT22;64927;48.214;16.378;2023-08-21T14:17:23;35.20;29.60
76168;DHT22;64927;48.214;16.378;2023-08-21T14:19:48;35.30;29.40
76168;DHT22;64927;48.214;16.378;2023-08-21T14:22:14;35.10;29.20
76168;DHT22;64927;48.214;16.378;2023-08-21T14:24:40;35.20;29.40
76168;DHT22;64927;48.214;16.378;2023-08-21T14:27:05;35.10;29.20
76168;DHT22;64927;48.214;16.378;2023-08-21T14:29:33;35.10;29.40
76168;DHT22;64927;48.214;16.378;2023-08-21T14:31:59;35.10;29.90
76168;DHT22;64927;48.214;16.378;2023-08-21T14:34:26;35.00;29.40
76168;DHT22;64927;48.214;16.378;2023-08-21T14:36:53;35.10;29.50
76168;DHT22;64927;48.214;16.378;2023-08-21T14:39:19;35.10;29.50
76168;DHT22;64927;48.214;16.378;2023-08-21T14:41:45;35.10;29.60
76168;DHT22;64927;48.214;16.378;2023-08-21T14:44:11;35.10;29.30
76168;DHT22;64927;48.214;16.378;2023-08-21T14:46:37;35.20;29.40
76168;DHT22;64927;48.214;16.378;2023-08-21T14:49:02;35.20;29.50
76168;DHT22;64927;48.214;16.378;2023-08-21T14:51:28;35.20;27.80
76168;DHT22;64927;48.214;16.378;2023-08-21T14:53:54;35.20;28.20
76168;DHT22;64927;48.214;16.378;2023-08-21T14:56:20;35.30;28.20
76168;DHT22;64927;48.214;16.378;2023-08-21T14:58:46;35.20;27.90
76168;DHT22;64927;48.214;16.378;2023-08-21T15:01:14;35.10;28.30
76168;DHT22;64927;48.214;16.378;2023-08-21T15:03:41;35.10;28.00
76168;DHT22;64927;48.214;16.378;2023-08-21T15:06:07;35.20;27.40
76168;DHT22;64927;48.214;16.378;2023-08-21T15:08:32;35.10;27.50
76168;DHT22;64927;48.214;16.378;2023-08-21T15:10:58;35.00;27.20
76168;DHT22;64927;48.214;16.378;2023-08-21T15:13:26;35.10;27.30
76168;DHT22;64927;48.214;16.378;2023-08-21T15:15:54;35.20;27.50
76168;DHT22;64927;48.214;16.378;2023-08-21T15:18:19;35.20;27.60
76168;DHT22;64927;48.214;16.378;2023-08-21T15:20:45;35.10;27.20
76168;DHT22;64927;48.214;16.378;2023-08-21T15:23:13;35.10;27.40
76168;DHT22;64927;48.214;16.378;2023-08-21T15:25:39;35.00;28.40
76168;DHT22;64927;48.214;16.378;2023-08-21T15:28:05;35.00;28.40
76168;DHT22;64927;48.214;16.378;2023-08-21T15:30:32;34.90;27.90
76168;DHT22;64927;48.214;16.378;2023-08-21T15:32:57;34.80;28.40
76168;DHT22;64927;48.214;16.378;2023-08-21T15:35:23;34.70;28.70